createdAt,value
2022-10-09T00:00:25.564Z,47.29
2022-10-09T00:02:52.275Z,46.86
2022-10-09T00:05:19.024Z,46.85
2022-10-09T00:07:45.893Z,46.91
2022-10-09T00:10:12.438Z,46.88
2022-10-09T00:12:38.946Z,47.08
2022-10-09T00:15:05.917Z,47.36
2022-10-09T00:17:32.483Z,47.44
2022-10-09T00:19:59.027Z,47.16
2022-10-09T00:22:25.545Z,47.57
2022-10-09T00:24:52.210Z,47.75
2022-10-09T00:27:19.130Z,47.71
2022-10-09T00:29:45.656Z,47.08
2022-10-09T00:32:12.178Z,47.45
2022-10-09T00:34:39.116Z,47.32
2022-10-09T00:37:06.014Z,48.01
2022-10-09T00:39:32.530Z,48.75
2022-10-09T00:41:59.217Z,47.69
2022-10-09T00:44:59.806Z,47.82
2022-10-09T00:47:40.662Z,48.02
2022-10-09T00:50:15.482Z,48.12
2022-10-09T00:52:43.872Z,47.64
2022-10-09T00:55:12.781Z,47.32
2022-10-09T00:57:41.640Z,46.67
2022-10-09T01:00:11.165Z,47.42
2022-10-09T01:02:38.809Z,47.91
2022-10-09T01:05:06.820Z,47.83
2022-10-09T01:07:46.997Z,47.95
2022-10-09T01:10:32.016Z,47.43
2022-10-09T01:13:07.710Z,47.57
2022-10-09T01:15:45.167Z,47.79
2022-10-09T01:18:30.857Z,47.47
2022-10-09T01:21:08.610Z,47.46
2022-10-09T01:23:59.358Z,47.21
2022-10-09T01:26:32.685Z,46.88
2022-10-09T01:29:04.954Z,47.13
2022-10-09T01:31:35.871Z,47.00
2022-10-09T01:34:03.572Z,47.16
2022-10-09T01:36:31.145Z,47.32
2022-10-09T01:39:01.912Z,47.47
2022-10-09T01:41:29.570Z,47.34
2022-10-09T01:43:56.122Z,47.54
2022-10-09T01:46:32.989Z,47.95
2022-10-09T01:49:22.768Z,47.91
2022-10-09T01:52:27.043Z,47.81
2022-10-09T01:55:18.186Z,47.49
2022-10-09T01:57:59.980Z,46.94
2022-10-09T02:00:28.291Z,46.98
2022-10-09T02:02:56.288Z,46.72
2022-10-09T02:05:27.878Z,47.29
2022-10-09T02:07:56.082Z,46.89
2022-10-09T02:10:23.778Z,46.84
2022-10-09T02:12:54.779Z,47.18
2022-10-09T02:15:26.729Z,46.54
2022-10-09T02:17:58.862Z,46.69
2022-10-09T02:20:30.988Z,46.61
2022-10-09T02:23:02.048Z,46.71
2022-10-09T02:25:29.220Z,46.67
2022-10-09T02:27:56.915Z,46.54
2022-10-09T02:30:26.771Z,46.83
2022-10-09T02:32:53.895Z,47.30
2022-10-09T02:35:21.402Z,47.34
2022-10-09T02:37:49.077Z,47.50
2022-10-09T02:40:16.105Z,47.72
2022-10-09T02:42:42.634Z,48.03
2022-10-09T02:45:09.784Z,47.63
2022-10-09T02:47:36.347Z,47.62
2022-10-09T02:50:02.978Z,47.13
2022-10-09T02:52:29.498Z,46.23
2022-10-09T02:54:56.045Z,46.46
2022-10-09T02:57:22.555Z,46.43
2022-10-09T02:59:49.599Z,46.80
2022-10-09T03:02:16.241Z,46.90
2022-10-09T03:04:42.829Z,47.30
2022-10-09T03:07:09.418Z,47.20
2022-10-09T03:09:36.154Z,47.20
2022-10-09T03:12:02.881Z,47.13
2022-10-09T03:14:29.774Z,47.38
2022-10-09T03:16:56.285Z,47.61
2022-10-09T03:19:23.108Z,47.59
2022-10-09T03:21:49.597Z,47.17
2022-10-09T03:24:16.125Z,46.94
2022-10-09T03:26:42.682Z,46.88
2022-10-09T03:29:09.208Z,46.86
2022-10-09T03:31:53.045Z,46.92
2022-10-09T03:34:21.208Z,47.28
2022-10-09T03:36:47.781Z,47.00
2022-10-09T03:39:14.398Z,47.00
2022-10-09T03:41:40.918Z,47.20
2022-10-09T03:44:07.453Z,46.76
2022-10-09T03:46:34.058Z,47.00
2022-10-09T03:49:00.878Z,47.12
2022-10-09T03:51:27.424Z,47.12
2022-10-09T03:53:54.238Z,46.85
2022-10-09T03:56:20.780Z,47.11
2022-10-09T03:58:47.317Z,47.24
2022-10-09T04:01:13.984Z,47.28
2022-10-09T04:03:40.593Z,46.85
2022-10-09T04:06:07.214Z,46.33
2022-10-09T04:08:35.284Z,46.50
2022-10-09T04:11:01.861Z,46.72
2022-10-09T04:13:28.379Z,46.64
2022-10-09T04:15:55.739Z,47.11
2022-10-09T04:18:22.664Z,47.66
2022-10-09T04:20:52.981Z,48.60
2022-10-09T04:23:24.621Z,49.71
2022-10-09T04:25:56.199Z,48.39
2022-10-09T04:28:23.453Z,48.55
2022-10-09T04:30:51.736Z,48.30
2022-10-09T04:33:18.963Z,47.91
2022-10-09T04:35:49.304Z,47.66
2022-10-09T04:38:16.187Z,47.29
2022-10-09T04:40:42.706Z,47.36
2022-10-09T04:43:09.292Z,47.25
2022-10-09T04:45:40.341Z,46.91
2022-10-09T04:48:06.869Z,46.78
2022-10-09T04:50:33.396Z,46.87
2022-10-09T04:52:59.948Z,46.35
2022-10-09T04:55:26.572Z,46.55
2022-10-09T04:57:53.887Z,45.85
2022-10-09T05:00:20.382Z,45.79
2022-10-09T05:02:47.565Z,46.30
2022-10-09T05:05:14.328Z,46.25
2022-10-09T05:07:41.256Z,46.12
2022-10-09T05:10:08.327Z,46.29
2022-10-09T05:12:34.850Z,46.36
2022-10-09T05:15:01.995Z,46.12
2022-10-09T05:17:28.575Z,46.18
2022-10-09T05:19:55.186Z,45.68
2022-10-09T05:22:21.706Z,45.62
2022-10-09T05:24:48.551Z,45.76
2022-10-09T05:27:15.085Z,45.62
2022-10-09T05:29:41.768Z,45.51
2022-10-09T05:32:08.314Z,45.52
2022-10-09T05:34:35.115Z,45.63
2022-10-09T05:37:01.658Z,45.17
2022-10-09T05:39:28.201Z,45.56
2022-10-09T05:41:54.773Z,45.36
2022-10-09T05:44:21.312Z,45.24
2022-10-09T05:46:48.094Z,45.35
2022-10-09T05:49:14.630Z,45.47
2022-10-09T05:51:44.035Z,45.28
2022-10-09T05:54:15.494Z,45.33
2022-10-09T05:56:45.094Z,45.49
2022-10-09T05:59:15.036Z,45.71
2022-10-09T06:01:43.634Z,45.86
2022-10-09T06:04:15.325Z,46.29
2022-10-09T06:06:42.278Z,47.15
2022-10-09T06:09:10.935Z,46.68
2022-10-09T06:11:39.558Z,46.77
2022-10-09T06:14:08.667Z,46.86
2022-10-09T06:16:40.289Z,46.87
2022-10-09T06:19:07.756Z,47.10
2022-10-09T06:21:34.569Z,46.95
2022-10-09T06:24:02.443Z,47.97
2022-10-09T06:26:30.120Z,47.65
2022-10-09T06:29:01.564Z,46.57
2022-10-09T06:31:30.519Z,45.67
2022-10-09T06:33:59.780Z,44.32
2022-10-09T06:36:28.748Z,43.22
2022-10-09T06:38:55.991Z,41.65
2022-10-09T06:41:24.980Z,41.57
2022-10-09T06:43:54.219Z,39.57
2022-10-09T06:46:23.908Z,39.23
2022-10-09T06:48:50.715Z,36.96
2022-10-09T06:51:20.595Z,35.53
2022-10-09T06:53:52.675Z,35.10
2022-10-09T06:56:21.797Z,34.67
2022-10-09T06:58:48.652Z,34.45
2022-10-09T07:01:21.459Z,33.94
2022-10-09T07:03:55.971Z,34.77
2022-10-09T07:06:25.367Z,33.42
2022-10-09T07:09:01.745Z,33.88
2022-10-09T07:11:31.875Z,33.02
2022-10-09T07:14:00.727Z,33.00
2022-10-09T07:16:37.523Z,33.12
2022-10-09T07:19:07.869Z,32.32
2022-10-09T07:21:35.683Z,31.46
2022-10-09T07:24:03.974Z,32.08
2022-10-09T07:26:32.772Z,32.80
2022-10-09T07:28:59.793Z,32.85
2022-10-09T07:31:26.392Z,31.87
2022-10-09T07:33:55.255Z,32.09
2022-10-09T07:36:22.817Z,31.46
2022-10-09T07:38:51.352Z,31.56
2022-10-09T07:41:18.785Z,31.08
2022-10-09T07:43:45.675Z,30.48
2022-10-09T07:46:17.636Z,31.23
2022-10-09T07:48:44.957Z,32.27
2022-10-09T07:51:15.466Z,30.98
2022-10-09T07:53:42.377Z,30.81
2022-10-09T07:56:21.150Z,30.22
2022-10-09T07:58:55.266Z,29.87
2022-10-09T08:01:23.574Z,29.82
2022-10-09T08:03:50.762Z,30.06
2022-10-09T08:06:18.568Z,29.41
2022-10-09T08:08:49.682Z,29.80
2022-10-09T08:11:18.145Z,29.38
2022-10-09T08:13:45.937Z,29.34
2022-10-09T08:16:13.247Z,28.75
2022-10-09T08:18:40.062Z,28.67
2022-10-09T08:21:12.564Z,27.82
2022-10-09T08:23:39.346Z,27.97
2022-10-09T08:26:16.046Z,28.34
2022-10-09T08:28:43.143Z,28.01
2022-10-09T08:31:14.463Z,28.06
2022-10-09T08:33:41.309Z,27.33
2022-10-09T08:36:10.201Z,27.01
2022-10-09T08:38:47.102Z,27.59
2022-10-09T08:41:41.923Z,28.66
2022-10-09T08:44:26.435Z,28.03
2022-10-09T08:47:29.974Z,27.93
2022-10-09T08:50:25.270Z,27.85
2022-10-09T08:53:05.385Z,27.38
2022-10-09T08:55:40.202Z,28.26
2022-10-09T08:58:07.040Z,28.17
2022-10-09T09:00:44.550Z,28.16
2022-10-09T09:03:33.008Z,28.46
2022-10-09T09:06:32.038Z,28.85
2022-10-09T09:09:05.164Z,28.33
2022-10-09T09:11:32.035Z,28.96
2022-10-09T09:14:31.035Z,28.43
2022-10-09T09:17:15.550Z,28.61
2022-10-09T09:20:04.186Z,29.23
2022-10-09T09:22:32.329Z,28.87
2022-10-09T09:25:00.582Z,29.31
2022-10-09T09:27:33.121Z,29.65
2022-10-09T09:30:14.671Z,30.19
2022-10-09T09:32:54.563Z,30.13
2022-10-09T09:35:37.442Z,28.84
2022-10-09T09:38:04.093Z,29.12
2022-10-09T09:40:37.109Z,28.97
2022-10-09T09:43:15.494Z,29.89
2022-10-09T09:45:44.300Z,29.95
2022-10-09T09:48:20.821Z,29.22
2022-10-09T09:51:10.351Z,30.58
2022-10-09T09:53:43.377Z,31.20
2022-10-09T09:56:10.435Z,31.38
2022-10-09T09:58:40.165Z,33.36
2022-10-09T10:01:07.763Z,32.53
2022-10-09T10:03:36.438Z,33.56
2022-10-09T10:06:03.700Z,32.67
2022-10-09T10:08:34.557Z,34.71
2022-10-09T10:11:07.288Z,34.88
2022-10-09T10:13:45.903Z,35.93
2022-10-09T10:16:22.823Z,37.45
2022-10-09T10:18:49.801Z,37.26
2022-10-09T10:21:19.718Z,37.16
2022-10-09T10:23:46.162Z,38.10
2022-10-09T10:26:25.688Z,38.20
2022-10-09T10:28:54.860Z,39.01
2022-10-09T10:31:35.420Z,38.24
2022-10-09T10:34:05.480Z,37.34
2022-10-09T10:36:33.740Z,36.89
2022-10-09T10:39:11.158Z,38.05
2022-10-09T10:41:43.165Z,39.99
2022-10-09T10:44:22.497Z,38.94
2022-10-09T10:46:54.715Z,38.52
2022-10-09T10:49:23.082Z,39.07
2022-10-09T10:52:40.126Z,39.81
2022-10-09T10:55:26.686Z,40.71
2022-10-09T10:58:12.584Z,38.51
2022-10-09T11:00:49.108Z,38.67
2022-10-09T11:03:28.229Z,39.02
2022-10-09T11:06:07.303Z,39.06
2022-10-09T11:08:45.988Z,39.54
2022-10-09T11:11:27.180Z,38.26
2022-10-09T11:14:08.090Z,40.04
2022-10-09T11:16:40.240Z,41.23
2022-10-09T11:19:39.542Z,40.31
2022-10-09T11:22:28.995Z,38.65
2022-10-09T11:25:15.827Z,41.50
2022-10-09T11:28:04.788Z,39.10
2022-10-09T11:30:41.284Z,39.96
2022-10-09T11:33:24.025Z,38.28
2022-10-09T11:35:58.985Z,39.85
2022-10-09T11:38:38.039Z,40.81
2022-10-09T11:41:07.494Z,38.88
2022-10-09T11:44:01.757Z,39.54
2022-10-09T11:46:50.098Z,38.77
2022-10-09T11:49:25.401Z,39.14
2022-10-09T11:51:59.973Z,38.69
2022-10-09T11:54:27.707Z,38.41
2022-10-09T11:56:58.817Z,38.65
2022-10-09T11:59:35.990Z,39.37
2022-10-09T12:02:26.220Z,39.32
2022-10-09T12:04:55.482Z,40.19
2022-10-09T12:07:41.202Z,39.80
2022-10-09T12:10:33.475Z,41.02
2022-10-09T12:13:04.409Z,39.90
2022-10-09T12:15:52.427Z,40.46
2022-10-09T12:18:30.718Z,39.47
2022-10-09T12:21:01.399Z,41.25
2022-10-09T12:23:32.170Z,39.96
2022-10-09T12:26:01.534Z,40.16
2022-10-09T12:28:37.767Z,41.75
2022-10-09T12:31:15.506Z,40.47
2022-10-09T12:33:51.405Z,39.58
2022-10-09T12:36:27.154Z,40.41
2022-10-09T12:38:54.802Z,39.47
2022-10-09T12:41:27.758Z,40.46
2022-10-09T12:43:56.667Z,40.47
2022-10-09T12:46:30.426Z,39.39
2022-10-09T12:48:58.540Z,40.49
2022-10-09T12:51:28.157Z,40.16
2022-10-09T12:53:54.976Z,40.51
2022-10-09T12:56:35.805Z,40.92
2022-10-09T12:59:03.097Z,41.53
2022-10-09T13:01:30.997Z,40.33
2022-10-09T13:04:04.157Z,41.25
2022-10-09T13:06:44.078Z,40.21
2022-10-09T13:09:38.918Z,39.20
2022-10-09T13:12:22.809Z,39.23
2022-10-09T13:14:53.289Z,39.29
2022-10-09T13:20:12.599Z,41.87
2022-10-09T13:22:39.746Z,39.97
2022-10-09T13:25:06.985Z,39.30
2022-10-09T13:27:38.122Z,38.70
2022-10-09T13:30:06.218Z,38.05
2022-10-09T13:32:32.754Z,38.39
2022-10-09T13:34:59.379Z,38.20
2022-10-09T13:37:27.280Z,39.03
2022-10-09T13:39:56.200Z,39.32
2022-10-09T13:42:25.930Z,38.80
2022-10-09T13:44:53.364Z,37.98
2022-10-09T13:47:24.226Z,37.77
2022-10-09T13:49:52.007Z,37.56
2022-10-09T13:52:18.724Z,37.51
2022-10-09T13:54:45.419Z,37.49
2022-10-09T13:57:12.069Z,37.77
2022-10-09T13:59:39.439Z,38.48
2022-10-09T14:02:06.136Z,38.80
2022-10-09T14:04:33.085Z,38.62
2022-10-09T14:06:59.613Z,38.37
2022-10-09T14:09:26.725Z,36.88
2022-10-09T14:11:53.751Z,36.99
2022-10-09T14:14:22.282Z,37.45
2022-10-09T14:16:49.113Z,37.79
2022-10-09T14:19:15.627Z,39.21
2022-10-09T14:21:42.182Z,38.76
2022-10-09T14:24:08.745Z,39.13
2022-10-09T14:26:35.442Z,37.44
2022-10-09T14:29:02.951Z,37.65
2022-10-09T14:31:30.244Z,37.68
2022-10-09T14:33:58.789Z,38.67
2022-10-09T14:36:26.306Z,37.71
2022-10-09T14:38:53.010Z,37.64
2022-10-09T14:41:20.004Z,38.01
2022-10-09T14:43:47.870Z,38.10
2022-10-09T14:46:17.257Z,38.62
2022-10-09T14:48:45.995Z,38.17
2022-10-09T14:51:15.356Z,38.47
2022-10-09T14:53:42.658Z,38.64
2022-10-09T14:56:15.185Z,37.94
2022-10-09T14:58:42.842Z,38.53
2022-10-09T15:01:14.342Z,37.99
2022-10-09T15:03:40.978Z,38.84
2022-10-09T15:06:09.526Z,39.86
2022-10-09T15:08:38.026Z,39.83
2022-10-09T15:11:05.070Z,40.55
2022-10-09T15:13:34.911Z,39.98
2022-10-09T15:16:04.356Z,40.85
2022-10-09T15:18:31.186Z,41.02
2022-10-09T15:20:59.749Z,41.04
2022-10-09T15:23:26.994Z,41.40
2022-10-09T15:25:56.459Z,41.64
2022-10-09T15:28:24.274Z,41.83
2022-10-09T15:30:53.800Z,41.80
2022-10-09T15:33:22.328Z,40.49
2022-10-09T15:35:50.051Z,41.36
2022-10-09T15:38:18.342Z,41.10
2022-10-09T15:40:47.704Z,41.56
2022-10-09T15:43:16.456Z,41.83
2022-10-09T15:45:43.739Z,40.74
2022-10-09T15:48:17.131Z,41.17
2022-10-09T15:50:46.269Z,41.90
2022-10-09T15:53:14.884Z,42.40
2022-10-09T15:55:44.188Z,42.47
2022-10-09T15:58:11.414Z,41.98
2022-10-09T16:00:39.641Z,42.29
2022-10-09T16:03:07.134Z,41.95
2022-10-09T16:05:43.232Z,42.79
2022-10-09T16:08:12.316Z,42.21
2022-10-09T16:10:49.283Z,42.10
2022-10-09T16:13:16.494Z,42.09
2022-10-09T16:15:44.286Z,42.46
2022-10-09T16:18:11.466Z,42.85
2022-10-09T16:20:40.445Z,42.77
2022-10-09T16:23:08.504Z,42.39
2022-10-09T16:25:36.881Z,42.66
2022-10-09T16:28:04.225Z,42.17
2022-10-09T16:30:32.220Z,42.78
2022-10-09T16:32:59.040Z,42.84
2022-10-09T16:35:25.602Z,42.67
2022-10-09T16:37:52.649Z,43.11
2022-10-09T16:40:20.993Z,42.34
2022-10-09T16:42:48.106Z,42.39
2022-10-09T16:45:15.114Z,42.15
2022-10-09T16:47:44.322Z,42.69
2022-10-09T16:50:12.211Z,43.76
2022-10-09T16:52:38.763Z,43.61
2022-10-09T16:55:05.958Z,44.46
2022-10-09T16:57:32.515Z,43.92
2022-10-09T16:59:59.089Z,44.22
2022-10-09T17:02:25.820Z,44.14
2022-10-09T17:04:52.438Z,44.19
2022-10-09T17:07:19.145Z,44.85
2022-10-09T17:09:45.688Z,44.50
2022-10-09T17:12:13.068Z,44.79
2022-10-09T17:14:40.547Z,45.30
2022-10-09T17:17:09.398Z,46.01
2022-10-09T17:19:36.602Z,45.35
2022-10-09T17:22:04.432Z,46.19
2022-10-09T17:24:32.234Z,46.22
2022-10-09T17:26:59.056Z,45.71
2022-10-09T17:29:27.120Z,45.86
2022-10-09T17:31:53.677Z,46.18
2022-10-09T17:34:20.661Z,46.03
2022-10-09T17:36:47.988Z,46.42
2022-10-09T17:39:17.377Z,45.61
2022-10-09T17:41:46.807Z,45.48
2022-10-09T17:44:15.001Z,45.38
2022-10-09T17:46:41.909Z,45.84
2022-10-09T17:49:09.663Z,45.21
2022-10-09T17:51:39.695Z,45.35
2022-10-09T17:54:12.983Z,45.46
2022-10-09T17:56:40.841Z,45.75
2022-10-09T17:59:08.039Z,45.99
2022-10-09T18:01:35.369Z,45.58
2022-10-09T18:04:02.289Z,44.92
2022-10-09T18:06:32.317Z,44.79
2022-10-09T18:08:59.677Z,44.71
2022-10-09T18:11:27.153Z,44.29
2022-10-09T18:13:54.667Z,44.37
2022-10-09T18:16:36.217Z,44.46
2022-10-09T18:19:12.629Z,44.05
2022-10-09T18:21:42.616Z,43.94
2022-10-09T18:24:09.503Z,44.02
2022-10-09T18:26:36.589Z,44.10
2022-10-09T18:29:03.427Z,44.38
2022-10-09T18:31:30.148Z,45.14
2022-10-09T18:33:58.645Z,44.64
2022-10-09T18:36:31.179Z,45.31
2022-10-09T18:39:02.038Z,46.84
2022-10-09T18:41:28.674Z,47.18
2022-10-09T18:43:55.295Z,48.42
2022-10-09T18:46:25.903Z,48.65
2022-10-09T18:48:54.566Z,49.12
2022-10-09T18:51:24.480Z,48.96
2022-10-09T18:53:56.087Z,49.03
2022-10-09T18:56:23.347Z,49.97
2022-10-09T18:58:52.596Z,49.70
2022-10-09T19:01:19.878Z,50.06
2022-10-09T19:03:49.930Z,50.63
2022-10-09T19:06:19.086Z,50.32
2022-10-09T19:08:46.479Z,49.68
2022-10-09T19:11:14.405Z,50.13
2022-10-09T19:13:44.575Z,49.66
2022-10-09T19:16:11.299Z,50.34
2022-10-09T19:18:39.445Z,50.04
2022-10-09T19:21:06.305Z,50.36
2022-10-09T19:23:32.900Z,49.65
2022-10-09T19:25:59.726Z,50.36
2022-10-09T19:28:30.894Z,49.35
2022-10-09T19:30:57.562Z,48.97
2022-10-09T19:33:25.403Z,49.36
2022-10-09T19:35:54.587Z,49.59
2022-10-09T19:38:22.606Z,50.10
2022-10-09T19:40:50.367Z,49.35
2022-10-09T19:43:18.697Z,49.79
2022-10-09T19:45:48.845Z,50.58
2022-10-09T19:48:17.153Z,50.18
2022-10-09T19:50:45.453Z,49.68
2022-10-09T19:53:12.661Z,48.90
2022-10-09T19:55:39.265Z,48.79
2022-10-09T19:58:07.058Z,47.69
2022-10-09T20:00:33.927Z,49.27
2022-10-09T20:03:00.529Z,49.37
2022-10-09T20:05:27.049Z,48.72
2022-10-09T20:07:53.802Z,48.77
2022-10-09T20:10:20.464Z,49.23
2022-10-09T20:12:47.418Z,49.60
2022-10-09T20:15:14.637Z,49.70
2022-10-09T20:17:41.258Z,49.37
2022-10-09T20:20:08.213Z,48.82
2022-10-09T20:22:34.816Z,49.00
2022-10-09T20:25:01.390Z,48.74
2022-10-09T20:27:29.878Z,47.79
2022-10-09T20:29:56.454Z,47.43
2022-10-09T20:32:24.851Z,47.52
2022-10-09T20:34:51.794Z,47.62
2022-10-09T20:37:18.384Z,48.02
2022-10-09T20:39:45.614Z,47.64
2022-10-09T20:42:12.099Z,47.31
2022-10-09T20:44:39.127Z,47.61
2022-10-09T20:47:05.917Z,47.70
2022-10-09T20:49:32.407Z,48.85
2022-10-09T20:51:58.954Z,49.13
2022-10-09T20:54:25.681Z,47.86
2022-10-09T20:56:52.316Z,47.76
2022-10-09T20:59:18.892Z,47.74
2022-10-09T21:01:46.035Z,47.66
2022-10-09T21:04:12.610Z,47.51
2022-10-09T21:06:39.354Z,47.80
2022-10-09T21:09:05.914Z,48.14
2022-10-09T21:11:34.898Z,48.36
2022-10-09T21:14:02.953Z,48.89
2022-10-09T21:16:29.799Z,48.98
2022-10-09T21:18:59.675Z,49.79
2022-10-09T21:21:26.888Z,49.56
2022-10-09T21:23:56.316Z,49.70
2022-10-09T21:26:24.147Z,49.50
2022-10-09T21:28:54.336Z,49.40
2022-10-09T21:31:26.165Z,49.03
2022-10-09T21:33:52.712Z,48.75
2022-10-09T21:36:32.359Z,50.49
2022-10-09T21:38:59.458Z,49.66
2022-10-09T21:41:26.339Z,49.76
2022-10-09T21:43:52.951Z,49.85
2022-10-09T21:46:19.505Z,49.38
2022-10-09T21:48:46.069Z,49.17
2022-10-09T21:51:12.709Z,49.66
2022-10-09T21:53:39.315Z,48.92
2022-10-09T21:56:06.034Z,49.08
2022-10-09T21:58:32.672Z,48.26
2022-10-09T22:01:01.167Z,48.43
2022-10-09T22:03:29.997Z,48.13
2022-10-09T22:05:56.576Z,48.17
2022-10-09T22:08:24.217Z,47.65
2022-10-09T22:10:51.529Z,48.21
2022-10-09T22:13:20.163Z,47.55
2022-10-09T22:15:51.118Z,48.88
2022-10-09T22:18:18.724Z,49.03
2022-10-09T22:20:48.890Z,49.46
2022-10-09T22:23:18.019Z,49.55
2022-10-09T22:25:44.942Z,49.96
2022-10-09T22:28:11.568Z,49.67
2022-10-09T22:30:38.150Z,50.54
2022-10-09T22:33:04.722Z,50.79
2022-10-09T22:35:31.249Z,49.97
2022-10-09T22:37:58.077Z,49.63
2022-10-09T22:40:24.660Z,50.21
2022-10-09T22:42:51.720Z,50.84
2022-10-09T22:45:18.822Z,50.83
2022-10-09T22:47:48.754Z,50.77
2022-10-09T22:50:15.346Z,50.54
2022-10-09T22:52:41.923Z,51.02
2022-10-09T22:55:08.825Z,51.41
2022-10-09T22:57:35.371Z,51.35
2022-10-09T23:00:01.934Z,50.95
2022-10-09T23:02:28.550Z,50.75
2022-10-09T23:04:55.074Z,51.17
2022-10-09T23:07:21.685Z,50.96
2022-10-09T23:09:48.226Z,51.01
2022-10-09T23:12:14.793Z,50.62
2022-10-09T23:14:41.477Z,50.75
2022-10-09T23:17:08.024Z,49.84
2022-10-09T23:19:34.697Z,48.92
2022-10-09T23:22:01.435Z,49.51
2022-10-09T23:24:28.279Z,49.75
2022-10-09T23:26:54.760Z,49.45
2022-10-09T23:29:21.435Z,49.13
2022-10-09T23:31:51.190Z,48.39
2022-10-09T23:34:17.712Z,48.64
2022-10-09T23:36:44.226Z,48.16
2022-10-09T23:39:10.841Z,47.63
2022-10-09T23:41:37.856Z,48.15
2022-10-09T23:44:04.616Z,49.44
2022-10-09T23:46:34.545Z,48.95
2022-10-09T23:49:01.276Z,48.87
2022-10-09T23:51:28.688Z,49.39
2022-10-09T23:53:55.697Z,50.39
2022-10-09T23:56:28.945Z,49.48
2022-10-09T23:58:56.510Z,49.24
